Time;durP1;ratioP1;P1;durP2;ratioP2;P2;SDS_P1;SDS_P2;PMS_P1;PMS_P2;Temp;Humidity;BMP_temperature;BMP_pressure;BME280_temperature;BME280_humidity;BME280_pressure;Samples;Min_cycle;Max_cycle;Signal;HPM_P1;HPM_P2
2023/01/23 00:00:31;;;;;;;;;48.00;38.25;;;;;;;;5011295;28;45263;-75
2023/01/23 00:02:57;;;;;;;;;48.00;39.00;;;;;;;;5016645;28;45177;-75
2023/01/23 00:05:22;;;;;;;;;58.00;43.25;;;;;;;;5012991;28;45604;-74
2023/01/23 00:07:47;;;;;;;;;53.25;43.00;;;;;;;;5015331;28;45194;-75
2023/01/23 00:10:13;;;;;;;;;46.25;38.75;;;;;;;;5011651;28;45470;-75
2023/01/23 00:12:42;;;;;;;;;49.00;37.50;;;;;;;;5009994;28;45427;-75
2023/01/23 00:15:07;;;;;;;;;59.75;43.00;;;;;;;;5015988;28;47012;-76
2023/01/23 00:17:33;;;;;;;;;49.25;42.75;;;;;;;;5008224;28;45318;-75
2023/01/23 00:19:59;;;;;;;;;51.25;39.50;;;;;;;;5014518;28;45346;-75
2023/01/23 00:22:24;;;;;;;;;48.00;36.50;;;;;;;;5011576;28;45482;-75
2023/01/23 00:24:49;;;;;;;;;40.00;36.75;;;;;;;;5012863;28;45569;-76
2023/01/23 00:27:14;;;;;;;;;54.50;42.25;;;;;;;;5012584;28;45395;-76
2023/01/23 00:29:40;;;;;;;;;53.75;38.75;;;;;;;;5015163;28;45234;-76
2023/01/23 00:32:05;;;;;;;;;57.00;42.75;;;;;;;;5018616;28;45213;-76
2023/01/23 00:34:30;;;;;;;;;60.25;43.25;;;;;;;;5015203;28;45817;-76
2023/01/23 00:36:56;;;;;;;;;56.50;43.75;;;;;;;;5012074;28;45908;-75
2023/01/23 00:39:21;;;;;;;;;52.75;40.00;;;;;;;;5014963;28;45264;-75
2023/01/23 00:41:47;;;;;;;;;46.25;36.00;;;;;;;;5016358;28;45543;-75
2023/01/23 00:44:13;;;;;;;;;46.50;38.75;;;;;;;;5018788;28;45809;-75
2023/01/23 00:46:38;;;;;;;;;47.50;38.25;;;;;;;;5009997;28;45418;-75
2023/01/23 00:49:03;;;;;;;;;56.00;43.25;;;;;;;;5008618;28;45363;-75
2023/01/23 00:51:29;;;;;;;;;39.25;31.00;;;;;;;;5013030;28;45335;-75
2023/01/23 00:53:54;;;;;;;;;50.00;40.75;;;;;;;;5018893;28;46731;-75
2023/01/23 00:56:19;;;;;;;;;52.00;40.00;;;;;;;;5014255;28;46248;-75
2023/01/23 00:58:45;;;;;;;;;40.00;36.00;;;;;;;;5012623;28;45289;-74
2023/01/23 01:01:10;;;;;;;;;48.25;40.00;;;;;;;;5012323;28;45427;-75
2023/01/23 01:03:36;;;;;;;;;50.50;42.00;;;;;;;;5000540;28;45313;-74
2023/01/23 01:06:01;;;;;;;;;47.00;37.25;;;;;;;;5012262;28;46212;-74
2023/01/23 01:08:27;;;;;;;;;58.75;44.00;;;;;;;;5006087;28;45379;-74
2023/01/23 01:10:52;;;;;;;;;39.75;33.00;;;;;;;;5011528;28;45318;-75
2023/01/23 01:13:20;;;;;;;;;51.50;42.00;;;;;;;;5016907;28;45509;-74
2023/01/23 01:15:46;;;;;;;;;55.50;40.00;;;;;;;;5013011;28;45196;-75
2023/01/23 01:18:11;;;;;;;;;53.50;37.50;;;;;;;;5012801;28;45373;-75
2023/01/23 01:20:39;;;;;;;;;45.50;36.25;;;;;;;;5022081;28;45225;-74
2023/01/23 01:23:05;;;;;;;;;48.50;33.75;;;;;;;;5004755;28;45429;-75
2023/01/23 01:25:30;;;;;;;;;52.00;39.00;;;;;;;;5016722;28;45228;-75
2023/01/23 01:27:55;;;;;;;;;52.75;41.00;;;;;;;;5005902;28;45481;-75
2023/01/23 01:30:20;;;;;;;;;58.25;40.00;;;;;;;;5016427;28;45336;-75
2023/01/23 01:32:46;;;;;;;;;54.50;44.00;;;;;;;;5010994;28;46836;-75
2023/01/23 01:35:11;;;;;;;;;54.50;42.25;;;;;;;;5011025;28;45258;-75
2023/01/23 01:37:37;;;;;;;;;52.25;34.00;;;;;;;;5009589;28;45430;-75
2023/01/23 01:40:04;;;;;;;;;59.50;44.00;;;;;;;;5017331;28;45449;-75
2023/01/23 01:42:29;;;;;;;;;67.00;50.50;;;;;;;;5004979;28;45995;-74
2023/01/23 01:44:55;;;;;;;;;55.50;39.50;;;;;;;;5019009;28;45157;-75
2023/01/23 01:47:21;;;;;;;;;63.00;42.25;;;;;;;;5015122;28;45598;-75
2023/01/23 01:49:46;;;;;;;;;53.50;40.00;;;;;;;;5018011;28;45141;-74
2023/01/23 01:52:13;;;;;;;;;55.75;41.75;;;;;;;;5006190;28;46040;-74
2023/01/23 01:54:38;;;;;;;;;46.25;41.25;;;;;;;;5017842;28;46805;-74
2023/01/23 01:57:07;;;;;;;;;50.25;40.25;;;;;;;;5016302;28;44779;-75
2023/01/23 01:59:35;;;;;;;;;52.75;42.25;;;;;;;;5013975;28;45387;-75
2023/01/23 02:02:08;;;;;;;;;50.00;41.50;;;;;;;;5000313;28;45518;-74
2023/01/23 02:04:35;;;;;;;;;58.00;43.75;;;;;;;;5013626;28;45388;-74
2023/01/23 02:07:04;;;;;;;;;41.25;29.00;;;;;;;;5001252;28;45228;-74
2023/01/23 02:09:32;;;;;;;;;45.00;41.50;;;;;;;;5013043;28;45249;-76
2023/01/23 02:11:57;;;;;;;;;53.00;41.00;;;;;;;;5001237;28;45257;-76
2023/01/23 02:14:24;;;;;;;;;48.75;38.00;;;;;;;;5017282;28;45417;-75
2023/01/23 02:16:51;;;;;;;;;57.00;41.50;;;;;;;;5012019;28;45232;-76
2023/01/23 02:19:22;;;;;;;;;51.50;38.25;;;;;;;;5026215;28;45656;-75
2023/01/23 02:21:52;;;;;;;;;49.00;36.25;;;;;;;;5006163;28;45387;-74
2023/01/23 02:24:47;;;;;;;;;52.25;41.75;;;;;;;;5010486;28;45533;-75
2023/01/23 02:27:12;;;;;;;;;52.50;39.75;;;;;;;;5004472;28;45457;-75
2023/01/23 02:29:42;;;;;;;;;60.00;44.00;;;;;;;;5012431;28;45445;-75
2023/01/23 02:32:09;;;;;;;;;49.50;40.50;;;;;;;;5016622;28;46517;-75
2023/01/23 02:34:34;;;;;;;;;47.25;39.50;;;;;;;;5016760;28;46124;-75
2023/01/23 02:36:59;;;;;;;;;57.25;40.00;;;;;;;;5006673;28;45341;-75
2023/01/23 02:39:26;;;;;;;;;48.00;38.00;;;;;;;;5014335;28;45202;-75
2023/01/23 02:41:52;;;;;;;;;57.00;42.25;;;;;;;;5017422;28;45455;-75
2023/01/23 02:44:25;;;;;;;;;45.00;39.75;;;;;;;;5014599;28;45386;-74
2023/01/23 02:46:52;;;;;;;;;42.25;37.25;;;;;;;;5006163;28;45264;-76
2023/01/23 02:49:17;;;;;;;;;61.75;43.50;;;;;;;;5013905;28;45276;-75
2023/01/23 02:51:42;;;;;;;;;54.50;40.75;;;;;;;;5013014;28;45443;-75
2023/01/23 02:54:08;;;;;;;;;47.00;40.25;;;;;;;;5013455;28;45382;-75
2023/01/23 02:56:33;;;;;;;;;51.25;39.75;;;;;;;;5011982;28;45402;-76
2023/01/23 03:01:42;;;;;;;;;59.50;43.50;;;;;;;;5000629;28;45230;-76
2023/01/23 03:04:08;;;;;;;;;62.33;49.33;;;;;;;;5007651;28;46494;-76
2023/01/23 03:06:37;;;;;;;;;59.00;46.50;;;;;;;;5014066;28;45394;-75
2023/01/23 03:09:04;;;;;;;;;66.00;45.00;;;;;;;;5005367;28;45391;-75
2023/01/23 03:11:29;;;;;;;;;62.67;48.00;;;;;;;;5007219;28;45464;-75
2023/01/23 03:13:54;;;;;;;;;58.00;42.50;;;;;;;;5013059;28;45585;-75
2023/01/23 03:16:20;;;;;;;;;51.25;43.25;;;;;;;;5015926;28;45391;-76
2023/01/23 03:18:45;;;;;;;;;60.75;47.00;;;;;;;;5014135;28;45216;-76
2023/01/23 03:21:11;;;;;;;;;60.25;44.75;;;;;;;;5018574;28;45236;-75
2023/01/23 03:23:38;;;;;;;;;54.75;41.00;;;;;;;;5011956;28;46996;-76
2023/01/23 03:26:03;;;;;;;;;56.00;42.75;;;;;;;;5019396;28;45351;-76
2023/01/23 03:31:13;;;;;;;;;56.50;43.25;;;;;;;;5008651;28;45422;-75
2023/01/23 03:33:41;;;;;;;;;45.75;41.75;;;;;;;;5016794;28;45399;-76
2023/01/23 03:36:07;;;;;;;;;64.33;46.00;;;;;;;;5016282;28;45347;-75
2023/01/23 03:38:32;;;;;;;;;46.25;43.00;;;;;;;;5008830;28;45524;-75
2023/01/23 03:43:41;;;;;;;;;58.75;43.75;;;;;;;;5012378;28;45339;-76
2023/01/23 03:46:07;;;;;;;;;50.50;42.25;;;;;;;;5026755;28;45312;-76
2023/01/23 03:48:32;;;;;;;;;67.25;48.75;;;;;;;;5020137;28;45331;-76
2023/01/23 03:50:57;;;;;;;;;45.50;40.00;;;;;;;;5017175;28;45323;-76
2023/01/23 03:53:23;;;;;;;;;58.50;41.75;;;;;;;;5017586;28;47163;-76
2023/01/23 03:55:49;;;;;;;;;49.00;40.00;;;;;;;;5015008;28;45162;-76
2023/01/23 03:58:14;;;;;;;;;61.67;49.00;;;;;;;;5002909;28;45407;-76
2023/01/23 04:00:39;;;;;;;;;48.25;40.00;;;;;;;;5013115;28;45707;-76
2023/01/23 04:03:05;;;;;;;;;51.50;42.25;;;;;;;;5010827;28;45376;-76
2023/01/23 04:05:30;;;;;;;;;60.50;43.25;;;;;;;;5016894;28;45465;-75
2023/01/23 04:07:55;;;;;;;;;59.75;44.75;;;;;;;;5009156;28;45262;-76
2023/01/23 04:10:20;;;;;;;;;56.00;41.00;;;;;;;;5014922;28;45244;-75
2023/01/23 04:12:46;;;;;;;;;66.25;45.50;;;;;;;;5011399;28;45313;-76
2023/01/23 04:15:11;;;;;;;;;67.25;47.75;;;;;;;;5017343;28;45321;-76
2023/01/23 04:17:36;;;;;;;;;59.50;45.75;;;;;;;;5011828;28;45281;-76
2023/01/23 04:20:03;;;;;;;;;51.50;40.25;;;;;;;;5024034;28;45418;-75
2023/01/23 04:22:28;;;;;;;;;57.75;42.50;;;;;;;;5025944;28;47835;-75
2023/01/23 04:24:53;;;;;;;;;62.50;44.75;;;;;;;;5016264;28;45432;-76
2023/01/23 04:27:18;;;;;;;;;63.67;47.00;;;;;;;;5011192;28;44880;-76
2023/01/23 04:29:46;;;;;;;;;64.50;46.50;;;;;;;;5014806;28;45340;-75
2023/01/23 04:32:11;;;;;;;;;61.00;42.50;;;;;;;;5012877;28;45445;-76
2023/01/23 04:34:37;;;;;;;;;59.25;46.50;;;;;;;;5015180;28;45331;-76
2023/01/23 04:37:02;;;;;;;;;56.75;44.75;;;;;;;;5018672;28;45318;-75
2023/01/23 04:39:27;;;;;;;;;48.00;35.25;;;;;;;;5009947;28;45345;-75
2023/01/23 04:41:52;;;;;;;;;58.00;43.25;;;;;;;;5008697;28;45924;-76
2023/01/23 04:44:20;;;;;;;;;63.33;44.67;;;;;;;;5014646;28;45331;-75
2023/01/23 04:46:48;;;;;;;;;65.67;48.67;;;;;;;;5007597;28;45308;-75
2023/01/23 04:49:13;;;;;;;;;65.50;47.00;;;;;;;;5015301;28;46317;-75
2023/01/23 04:51:39;;;;;;;;;56.25;44.50;;;;;;;;5011724;28;45375;-75
2023/01/23 04:54:04;;;;;;;;;56.75;45.50;;;;;;;;5014824;28;45241;-75
2023/01/23 04:56:29;;;;;;;;;52.25;44.00;;;;;;;;5011396;28;45391;-75
2023/01/23 04:58:54;;;;;;;;;58.50;41.25;;;;;;;;5019854;28;45332;-75
2023/01/23 05:01:23;;;;;;;;;61.75;43.75;;;;;;;;5016075;28;46753;-76
2023/01/23 05:03:48;;;;;;;;;65.50;47.25;;;;;;;;5002487;28;45307;-76
2023/01/23 05:06:14;;;;;;;;;63.75;46.25;;;;;;;;5012328;28;45451;-75
2023/01/23 05:08:39;;;;;;;;;60.00;46.00;;;;;;;;5002986;28;45337;-75
2023/01/23 05:11:04;;;;;;;;;63.50;48.25;;;;;;;;5014372;28;45281;-74
2023/01/23 05:13:29;;;;;;;;;55.75;42.75;;;;;;;;5011902;28;45443;-75
2023/01/23 05:15:55;;;;;;;;;50.25;39.25;;;;;;;;5016658;28;45276;-75
2023/01/23 05:18:21;;;;;;;;;55.50;41.25;;;;;;;;5007945;28;45253;-75
2023/01/23 05:20:46;;;;;;;;;61.00;41.50;;;;;;;;5015620;28;45374;-75
2023/01/23 05:23:11;;;;;;;;;51.00;41.75;;;;;;;;5012940;28;45220;-76
2023/01/23 05:25:36;;;;;;;;;57.50;42.00;;;;;;;;5015358;28;45495;-75
2023/01/23 05:28:02;;;;;;;;;49.75;42.50;;;;;;;;5012880;28;45470;-75
2023/01/23 05:30:27;;;;;;;;;55.00;38.75;;;;;;;;5017175;28;45429;-75
2023/01/23 05:32:52;;;;;;;;;61.25;50.00;;;;;;;;5011069;28;45241;-75
2023/01/23 05:35:18;;;;;;;;;58.50;42.25;;;;;;;;5017766;28;45218;-75
2023/01/23 05:37:47;;;;;;;;;58.00;44.75;;;;;;;;5009581;28;45315;-75
2023/01/23 05:40:12;;;;;;;;;56.75;44.25;;;;;;;;5016802;28;46758;-75
2023/01/23 05:42:37;;;;;;;;;62.25;47.00;;;;;;;;5005850;28;45296;-75
2023/01/23 05:45:03;;;;;;;;;70.50;44.25;;;;;;;;5019373;28;45343;-76
2023/01/23 05:47:28;;;;;;;;;62.75;45.00;;;;;;;;5005989;28;45411;-75
2023/01/23 05:49:53;;;;;;;;;63.50;49.25;;;;;;;;5019234;28;45177;-75
2023/01/23 05:52:20;;;;;;;;;62.75;45.25;;;;;;;;5014994;28;45427;-76
2023/01/23 05:54:45;;;;;;;;;62.00;45.50;;;;;;;;5012131;28;45308;-75
2023/01/23 05:57:11;;;;;;;;;59.50;43.75;;;;;;;;5005780;28;45265;-76
2023/01/23 05:59:36;;;;;;;;;61.75;45.50;;;;;;;;5022748;28;46954;-76
2023/01/23 06:02:01;;;;;;;;;61.33;49.00;;;;;;;;5009380;28;45229;-76
2023/01/23 06:04:26;;;;;;;;;60.25;46.25;;;;;;;;5006342;28;45566;-75
2023/01/23 06:06:52;;;;;;;;;58.25;43.75;;;;;;;;5006132;28;45308;-76
2023/01/23 06:09:17;;;;;;;;;62.25;42.25;;;;;;;;5007894;28;45158;-76
2023/01/23 06:11:42;;;;;;;;;37.25;30.00;;;;;;;;5012662;28;45549;-76
2023/01/23 06:14:07;;;;;;;;;54.75;44.00;;;;;;;;5008402;28;45340;-76
2023/01/23 06:16:32;;;;;;;;;47.50;40.00;;;;;;;;5013646;28;47119;-76
2023/01/23 06:18:58;;;;;;;;;41.75;36.50;;;;;;;;5011176;28;46051;-75
2023/01/23 06:21:23;;;;;;;;;46.50;36.00;;;;;;;;5011299;28;45646;-76
2023/01/23 06:23:48;;;;;;;;;48.50;36.75;;;;;;;;5009728;28;45410;-76
2023/01/23 06:26:14;;;;;;;;;47.25;40.50;;;;;;;;5015965;28;45411;-76
2023/01/23 06:28:39;;;;;;;;;45.25;40.25;;;;;;;;5009211;28;45411;-76
2023/01/23 06:31:06;;;;;;;;;51.75;40.25;;;;;;;;5013566;28;45337;-75
2023/01/23 06:33:31;;;;;;;;;50.00;39.75;;;;;;;;5018531;28;45271;-76
2023/01/23 06:36:00;;;;;;;;;56.25;42.00;;;;;;;;5013896;28;45582;-76
2023/01/23 06:38:26;;;;;;;;;35.75;34.00;;;;;;;;5011331;28;46928;-75
2023/01/23 06:40:52;;;;;;;;;51.50;41.50;;;;;;;;5011336;28;45390;-75
2023/01/23 06:43:17;;;;;;;;;65.00;46.00;;;;;;;;5012968;28;45381;-76
2023/01/23 06:45:44;;;;;;;;;59.25;43.50;;;;;;;;5015194;28;45317;-76
2023/01/23 06:48:09;;;;;;;;;60.67;47.00;;;;;;;;5006396;28;47890;-76
2023/01/23 06:50:34;;;;;;;;;56.75;46.50;;;;;;;;5017375;28;45564;-75
2023/01/23 06:52:59;;;;;;;;;54.50;42.25;;;;;;;;5006331;28;45842;-75
2023/01/23 06:55:25;;;;;;;;;62.00;44.75;;;;;;;;5014761;28;46097;-76
2023/01/23 06:57:50;;;;;;;;;62.33;46.00;;;;;;;;5007976;28;45351;-76
2023/01/23 07:00:15;;;;;;;;;58.25;47.50;;;;;;;;5016744;28;45371;-76
2023/01/23 07:02:40;;;;;;;;;64.50;49.00;;;;;;;;5009392;28;46007;-76
2023/01/23 07:05:06;;;;;;;;;49.00;43.00;;;;;;;;5017750;28;45236;-76
2023/01/23 07:07:31;;;;;;;;;57.00;44.50;;;;;;;;5006498;28;45375;-75
2023/01/23 07:09:56;;;;;;;;;53.00;40.00;;;;;;;;5008948;28;46445;-76
2023/01/23 07:12:21;;;;;;;;;59.00;44.00;;;;;;;;5008796;28;45485;-76
2023/01/23 07:14:47;;;;;;;;;54.00;39.25;;;;;;;;5011449;28;46976;-76
2023/01/23 07:17:12;;;;;;;;;43.75;36.75;;;;;;;;5007022;28;45598;-76
2023/01/23 07:19:37;;;;;;;;;46.50;36.25;;;;;;;;5014833;28;45951;-75
2023/01/23 07:22:02;;;;;;;;;68.00;47.25;;;;;;;;5011809;28;45579;-75
2023/01/23 07:24:30;;;;;;;;;51.50;40.50;;;;;;;;5018110;28;45288;-75
2023/01/23 07:26:55;;;;;;;;;47.25;41.75;;;;;;;;5018110;28;47042;-75
2023/01/23 07:29:20;;;;;;;;;58.75;46.00;;;;;;;;5011438;28;45230;-76
2023/01/23 07:31:46;;;;;;;;;52.00;42.00;;;;;;;;5011357;28;45469;-75
2023/01/23 07:34:11;;;;;;;;;55.50;40.50;;;;;;;;5018123;28;46040;-75
2023/01/23 07:36:36;;;;;;;;;54.00;42.75;;;;;;;;5017312;28;46932;-76
2023/01/23 07:39:01;;;;;;;;;51.00;38.75;;;;;;;;5008619;28;45207;-77
2023/01/23 07:41:26;;;;;;;;;53.50;38.50;;;;;;;;5008671;28;45397;-77
2023/01/23 07:43:52;;;;;;;;;55.00;43.00;;;;;;;;5013855;28;45221;-78
2023/01/23 07:46:17;;;;;;;;;47.00;41.50;;;;;;;;5011802;28;45446;-81
2023/01/23 07:48:42;;;;;;;;;61.00;41.00;;;;;;;;5015628;28;45353;-79
2023/01/23 07:51:07;;;;;;;;;51.50;42.50;;;;;;;;5015584;28;45235;-80
2023/01/23 07:53:33;;;;;;;;;67.75;46.75;;;;;;;;5010754;28;45175;-77
2023/01/23 07:55:58;;;;;;;;;54.25;43.75;;;;;;;;5015406;28;45252;-76
2023/01/23 07:58:23;;;;;;;;;59.00;41.25;;;;;;;;5008548;28;45410;-76
2023/01/23 08:00:48;;;;;;;;;64.25;44.00;;;;;;;;5016244;28;45348;-78
2023/01/23 08:03:14;;;;;;;;;56.50;44.50;;;;;;;;5004908;28;45629;-74
2023/01/23 08:05:39;;;;;;;;;46.00;36.75;;;;;;;;5012887;28;45422;-76
2023/01/23 08:08:04;;;;;;;;;58.50;42.25;;;;;;;;5008256;28;45363;-76
2023/01/23 08:10:30;;;;;;;;;48.25;40.25;;;;;;;;5013716;28;45499;-75
2023/01/23 08:12:55;;;;;;;;;52.50;43.00;;;;;;;;5012355;28;46018;-77
2023/01/23 08:15:20;;;;;;;;;58.75;44.50;;;;;;;;5014025;28;45553;-76
2023/01/23 08:17:45;;;;;;;;;43.75;30.75;;;;;;;;5009983;28;45414;-76
2023/01/23 08:20:10;;;;;;;;;47.50;38.00;;;;;;;;5019351;28;45545;-76
2023/01/23 08:22:39;;;;;;;;;48.00;39.25;;;;;;;;5019065;28;46266;-77
2023/01/23 08:25:05;;;;;;;;;44.25;37.50;;;;;;;;5020005;28;45244;-78
2023/01/23 08:27:30;;;;;;;;;59.00;43.75;;;;;;;;5012786;28;45296;-76
2023/01/23 08:29:56;;;;;;;;;54.00;44.00;;;;;;;;5016115;28;45367;-77
2023/01/23 08:32:21;;;;;;;;;49.25;40.25;;;;;;;;5011872;28;45809;-76
2023/01/23 08:34:46;;;;;;;;;43.25;38.50;;;;;;;;5014573;28;45659;-76
2023/01/23 08:37:11;;;;;;;;;55.00;43.75;;;;;;;;5015522;28;45319;-77
2023/01/23 08:39:36;;;;;;;;;47.75;35.75;;;;;;;;5018900;28;46300;-76
2023/01/23 08:42:02;;;;;;;;;59.25;36.50;;;;;;;;5015117;28;45843;-76
2023/01/23 08:44:30;;;;;;;;;47.50;42.50;;;;;;;;5017561;28;47459;-78
2023/01/23 08:46:55;;;;;;;;;46.75;38.25;;;;;;;;5015339;28;45476;-77
2023/01/23 08:49:20;;;;;;;;;50.75;39.75;;;;;;;;5017515;28;45350;-77
2023/01/23 08:51:45;;;;;;;;;50.50;42.25;;;;;;;;5017069;28;45561;-78
2023/01/23 08:54:11;;;;;;;;;51.00;40.00;;;;;;;;5017133;28;45411;-77
2023/01/23 08:56:36;;;;;;;;;54.50;40.75;;;;;;;;5009558;28;45315;-77
2023/01/23 08:59:01;;;;;;;;;55.75;43.00;;;;;;;;5019023;28;45299;-77
2023/01/23 09:01:27;;;;;;;;;51.25;40.75;;;;;;;;5016195;28;45960;-76
2023/01/23 09:03:52;;;;;;;;;41.25;35.75;;;;;;;;5018166;28;45382;-78
2023/01/23 09:06:18;;;;;;;;;55.00;43.50;;;;;;;;5012297;28;45596;-76
2023/01/23 09:08:44;;;;;;;;;55.50;42.00;;;;;;;;5017482;28;45300;-76
2023/01/23 09:11:10;;;;;;;;;46.50;36.50;;;;;;;;5014533;28;45178;-77
2023/01/23 09:13:35;;;;;;;;;52.00;40.75;;;;;;;;5012909;28;45407;-75
2023/01/23 09:16:01;;;;;;;;;45.75;39.00;;;;;;;;5017528;28;45173;-76
2023/01/23 09:18:26;;;;;;;;;48.00;40.00;;;;;;;;5019684;28;45212;-76
2023/01/23 09:20:52;;;;;;;;;48.75;38.25;;;;;;;;5005934;28;45239;-77
2023/01/23 09:23:17;;;;;;;;;52.25;36.00;;;;;;;;5010546;28;47054;-76
2023/01/23 09:25:43;;;;;;;;;47.00;38.75;;;;;;;;5015091;28;45253;-77
2023/01/23 09:28:08;;;;;;;;;47.00;39.00;;;;;;;;5012399;28;45410;-77
2023/01/23 09:30:34;;;;;;;;;56.75;41.50;;;;;;;;5017346;28;45407;-77
2023/01/23 09:32:59;;;;;;;;;48.00;39.75;;;;;;;;5010002;28;45985;-77
2023/01/23 09:35:24;;;;;;;;;42.75;39.00;;;;;;;;5017262;28;45517;-78
2023/01/23 09:37:58;;;;;;;;;50.25;40.75;;;;;;;;5008825;28;45465;-77
2023/01/23 09:40:25;;;;;;;;;51.00;37.25;;;;;;;;5015042;28;46553;-77
2023/01/23 09:42:51;;;;;;;;;44.50;36.75;;;;;;;;5007908;28;46579;-78
2023/01/23 09:45:19;;;;;;;;;51.00;39.50;;;;;;;;5018534;28;45338;-77
2023/01/23 09:47:48;;;;;;;;;44.25;36.50;;;;;;;;5005456;28;45399;-77
2023/01/23 09:50:16;;;;;;;;;45.50;34.75;;;;;;;;5020005;28;45266;-75
2023/01/23 09:52:45;;;;;;;;;40.25;34.75;;;;;;;;5007381;28;45488;-77
2023/01/23 09:55:21;;;;;;;;;46.75;36.25;;;;;;;;5022675;28;45212;-76
2023/01/23 09:57:56;;;;;;;;;29.25;22.50;;;;;;;;5018878;28;45247;-77
2023/01/23 10:00:29;;;;;;;;;45.25;38.50;;;;;;;;5016931;28;45352;-77
2023/01/23 10:02:55;;;;;;;;;31.50;28.00;;;;;;;;5012055;28;45456;-77
2023/01/23 10:05:30;;;;;;;;;41.50;35.00;;;;;;;;5015779;28;45538;-76
2023/01/23 10:07:55;;;;;;;;;34.50;30.50;;;;;;;;5011186;28;45361;-78
2023/01/23 10:10:21;;;;;;;;;41.00;33.25;;;;;;;;5010382;28;45768;-77
2023/01/23 10:12:53;;;;;;;;;45.00;34.00;;;;;;;;5011728;28;46712;-77
2023/01/23 10:15:32;;;;;;;;;50.50;32.00;;;;;;;;5003761;28;45643;-76
2023/01/23 10:18:07;;;;;;;;;59.25;42.00;;;;;;;;5010644;28;45342;-77
2023/01/23 10:20:42;;;;;;;;;58.75;43.50;;;;;;;;5014616;28;45600;-76
2023/01/23 10:23:07;;;;;;;;;51.00;41.25;;;;;;;;5005697;28;45471;-75
2023/01/23 10:25:36;;;;;;;;;59.50;41.50;;;;;;;;5015818;28;44839;-75
2023/01/23 10:28:15;;;;;;;;;51.25;41.25;;;;;;;;5014498;28;45421;-76
2023/01/23 10:30:40;;;;;;;;;47.25;39.50;;;;;;;;5017456;28;45178;-76
2023/01/23 10:33:13;;;;;;;;;38.00;30.25;;;;;;;;5011284;28;46798;-76
2023/01/23 10:35:46;;;;;;;;;43.00;33.25;;;;;;;;5007883;28;45321;-75
2023/01/23 10:38:21;;;;;;;;;49.75;39.75;;;;;;;;5018793;28;45377;-75
2023/01/23 10:43:30;;;;;;;;;45.25;34.25;;;;;;;;5006130;28;45609;-78
2023/01/23 10:45:56;;;;;;;;;48.50;38.50;;;;;;;;5014621;28;45355;-77
2023/01/23 10:48:38;;;;;;;;;36.50;34.00;;;;;;;;5017300;28;45491;-77
2023/01/23 10:51:03;;;;;;;;;52.75;38.50;;;;;;;;5015232;28;45178;-77
2023/01/23 10:53:28;;;;;;;;;44.50;39.00;;;;;;;;5008440;28;45261;-76
2023/01/23 10:55:57;;;;;;;;;49.75;37.25;;;;;;;;5003034;28;45363;-78
2023/01/23 10:58:22;;;;;;;;;52.25;40.75;;;;;;;;4998542;28;45296;-78
2023/01/23 11:00:48;;;;;;;;;38.25;35.00;;;;;;;;5000968;28;45389;-76
2023/01/23 11:03:19;;;;;;;;;52.00;39.75;;;;;;;;4999452;28;45421;-76
2023/01/23 11:05:50;;;;;;;;;35.75;29.50;;;;;;;;5007781;28;45529;-76
2023/01/23 11:08:26;;;;;;;;;41.75;32.50;;;;;;;;5004753;28;45373;-76
2023/01/23 11:10:52;;;;;;;;;33.75;28.50;;;;;;;;5012154;28;45224;-77
2023/01/23 11:13:25;;;;;;;;;40.00;32.00;;;;;;;;5014125;28;46626;-76
2023/01/23 11:15:50;;;;;;;;;41.25;34.25;;;;;;;;5014717;28;45415;-77
2023/01/23 11:18:33;;;;;;;;;39.75;29.25;;;;;;;;5012783;28;45751;-76
2023/01/23 11:20:58;;;;;;;;;46.75;35.25;;;;;;;;5009285;28;45445;-76
2023/01/23 11:23:24;;;;;;;;;30.00;26.00;;;;;;;;5019222;28;45405;-78
2023/01/23 11:25:50;;;;;;;;;40.75;29.00;;;;;;;;5014551;28;45327;-78
2023/01/23 11:28:15;;;;;;;;;27.50;17.75;;;;;;;;5009970;28;45335;-77
2023/01/23 11:30:45;;;;;;;;;37.00;28.25;;;;;;;;5013929;28;45526;-78
2023/01/23 11:33:25;;;;;;;;;50.75;35.00;;;;;;;;5007040;28;46440;-75
2023/01/23 11:36:00;;;;;;;;;38.75;29.00;;;;;;;;5019556;28;44745;-76
2023/01/23 11:38:26;;;;;;;;;30.50;25.50;;;;;;;;5019735;28;45325;-76
2023/01/23 11:40:52;;;;;;;;;38.25;28.75;;;;;;;;5015220;28;45493;-76
2023/01/23 11:43:17;;;;;;;;;29.50;22.25;;;;;;;;5007541;28;47095;-75
2023/01/23 11:45:59;;;;;;;;;36.50;31.25;;;;;;;;5016828;28;45481;-75
2023/01/23 11:48:27;;;;;;;;;37.50;29.75;;;;;;;;5010540;28;45208;-77
2023/01/23 11:51:09;;;;;;;;;44.25;33.25;;;;;;;;5018925;28;45466;-77
2023/01/23 11:53:43;;;;;;;;;40.00;30.50;;;;;;;;5014247;28;48402;-77
2023/01/23 11:56:12;;;;;;;;;28.25;26.25;;;;;;;;5021751;28;45295;-76
2023/01/23 11:58:56;;;;;;;;;34.00;31.00;;;;;;;;5001626;28;45257;-76
2023/01/23 12:01:28;;;;;;;;;41.25;33.25;;;;;;;;5012965;28;45225;-77
2023/01/23 12:04:16;;;;;;;;;34.75;32.00;;;;;;;;5017744;28;47266;-75
2023/01/23 12:06:56;;;;;;;;;39.75;32.50;;;;;;;;5005601;28;45476;-76
2023/01/23 12:09:24;;;;;;;;;51.25;40.25;;;;;;;;5012131;28;45249;-76
2023/01/23 12:11:55;;;;;;;;;34.50;29.50;;;;;;;;5013581;28;45482;-76
2023/01/23 12:14:26;;;;;;;;;37.50;31.25;;;;;;;;5021998;28;45294;-80
2023/01/23 12:16:57;;;;;;;;;40.50;31.75;;;;;;;;5014121;28;45158;-80
2023/01/23 12:19:26;;;;;;;;;35.00;33.25;;;;;;;;5020279;28;45328;-77
2023/01/23 12:22:06;;;;;;;;;38.75;32.75;;;;;;;;5012043;28;45364;-76
2023/01/23 12:24:34;;;;;;;;;34.50;28.75;;;;;;;;5017021;28;47048;-76
2023/01/23 12:27:05;;;;;;;;;45.00;35.50;;;;;;;;5016055;28;45395;-76
2023/01/23 12:29:33;;;;;;;;;45.50;34.00;;;;;;;;5017350;28;45430;-77
2023/01/23 12:32:09;;;;;;;;;40.25;34.75;;;;;;;;5013403;28;45566;-76
2023/01/23 12:34:34;;;;;;;;;47.50;36.75;;;;;;;;5015589;28;46614;-76
2023/01/23 12:37:16;;;;;;;;;38.25;30.25;;;;;;;;5015210;28;45573;-76
2023/01/23 12:39:41;;;;;;;;;40.00;32.50;;;;;;;;5016651;28;45249;-76
2023/01/23 12:42:14;;;;;;;;;35.50;28.75;;;;;;;;5016117;28;45299;-77
2023/01/23 12:44:47;;;;;;;;;40.75;34.00;;;;;;;;5013261;28;45492;-76
2023/01/23 12:47:17;;;;;;;;;41.00;31.00;;;;;;;;5014553;28;45466;-76
2023/01/23 12:49:44;;;;;;;;;38.25;32.25;;;;;;;;5017407;28;45374;-76
2023/01/23 12:52:09;;;;;;;;;31.75;28.25;;;;;;;;5014046;28;45280;-77
2023/01/23 12:55:04;;;;;;;;;31.25;27.00;;;;;;;;5014928;28;45769;-77
2023/01/23 12:57:38;;;;;;;;;35.50;28.50;;;;;;;;5002886;28;45384;-77
2023/01/23 13:00:22;;;;;;;;;29.25;22.50;;;;;;;;5016075;28;45360;-76
2023/01/23 13:02:47;;;;;;;;;30.75;27.50;;;;;;;;5010558;28;45905;-76
2023/01/23 13:05:31;;;;;;;;;36.25;30.25;;;;;;;;5019060;28;45570;-76
2023/01/23 13:08:00;;;;;;;;;23.50;22.50;;;;;;;;5010949;28;45296;-76
2023/01/23 13:10:25;;;;;;;;;38.00;30.00;;;;;;;;5017660;28;45218;-76
2023/01/23 13:12:54;;;;;;;;;33.00;28.50;;;;;;;;5012256;28;46199;-77
2023/01/23 13:15:24;;;;;;;;;29.75;20.75;;;;;;;;5013631;28;45639;-74
2023/01/23 13:17:50;;;;;;;;;35.25;25.75;;;;;;;;5013906;28;45450;-76
2023/01/23 13:23:26;;;;;;;;;29.75;23.75;;;;;;;;5010070;28;45355;-76
2023/01/23 13:26:10;;;;;;;;;37.75;27.25;;;;;;;;5002651;28;47562;-76
2023/01/23 13:28:49;;;;;;;;;25.50;24.00;;;;;;;;5014908;28;45292;-74
2023/01/23 13:31:23;;;;;;;;;29.25;24.00;;;;;;;;5015095;28;45524;-75
2023/01/23 13:33:49;;;;;;;;;20.50;20.50;;;;;;;;5016382;28;45437;-74
2023/01/23 13:36:26;;;;;;;;;29.50;24.50;;;;;;;;5013279;28;45464;-74
2023/01/23 13:39:00;;;;;;;;;23.00;17.00;;;;;;;;5014942;28;45424;-74
2023/01/23 13:41:29;;;;;;;;;31.00;25.00;;;;;;;;5012028;28;45265;-74
2023/01/23 13:44:03;;;;;;;;;33.50;28.00;;;;;;;;5016187;28;46703;-75
2023/01/23 13:46:47;;;;;;;;;28.00;20.25;;;;;;;;5012082;28;45843;-75
2023/01/23 13:56:37;;;;;;;;;28.00;21.25;;;;;;;;5009312;28;44876;-75
2023/01/23 13:57:36;;;;;;;;;28.75;22.75;;;;;;;;5008407;28;45193;-74
2023/01/23 14:00:01;;;;;;;;;28.00;20.75;;;;;;;;5007485;28;45330;-75
2023/01/23 14:05:15;;;;;;;;;32.50;24.75;;;;;;;;5017670;28;45229;-74
2023/01/23 14:07:42;;;;;;;;;29.50;22.00;;;;;;;;5009226;28;47895;-74
2023/01/23 14:10:13;;;;;;;;;22.50;16.75;;;;;;;;5018669;28;45410;-74
2023/01/23 14:12:38;;;;;;;;;21.00;15.25;;;;;;;;5010589;28;45424;-74
2023/01/23 14:18:00;;;;;;;;;26.25;18.75;;;;;;;;5012564;28;45219;-74
2023/01/23 14:20:25;;;;;;;;;20.25;12.75;;;;;;;;5016724;28;45363;-76
2023/01/23 14:22:52;;;;;;;;;29.00;23.50;;;;;;;;5016613;28;45177;-76
2023/01/23 14:25:18;;;;;;;;;20.25;20.25;;;;;;;;5017388;28;45393;-75
2023/01/23 14:27:43;;;;;;;;;26.00;23.25;;;;;;;;5009961;28;45457;-76
2023/01/23 14:30:16;;;;;;;;;22.00;18.75;;;;;;;;5014147;28;46282;-75
2023/01/23 14:32:43;;;;;;;;;28.00;24.00;;;;;;;;5009733;28;45251;-75
2023/01/23 14:35:28;;;;;;;;;28.50;26.00;;;;;;;;5018307;28;45485;-76
2023/01/23 14:37:55;;;;;;;;;28.25;21.50;;;;;;;;5009711;28;45317;-76
2023/01/23 14:40:22;;;;;;;;;21.00;18.00;;;;;;;;5017440;28;45304;-76
2023/01/23 14:43:01;;;;;;;;;25.50;19.75;;;;;;;;5004485;28;45323;-76